createdAt,value
2022-11-15T00:01:34.213Z,5.00
2022-11-15T00:04:19.762Z,6.25
2022-11-15T00:07:05.701Z,5.60
2022-11-15T00:09:51.067Z,4.20
2022-11-15T00:12:37.087Z,3.25
2022-11-15T00:15:22.261Z,8.90
2022-11-15T00:18:15.659Z,4.68
2022-11-15T00:21:07.240Z,5.50
2022-11-15T00:23:52.403Z,4.65
2022-11-15T00:26:38.222Z,2.17
2022-11-15T00:29:24.717Z,2.33
2022-11-15T00:32:15.052Z,4.70
2022-11-15T00:35:02.036Z,3.05
2022-11-15T00:37:48.841Z,3.28
2022-11-15T00:40:34.603Z,5.63
2022-11-15T00:43:20.390Z,3.03
2022-11-15T00:46:06.354Z,3.58
2022-11-15T00:48:52.111Z,2.25
2022-11-15T00:51:37.655Z,4.20
2022-11-15T00:54:23.497Z,5.30
2022-11-15T00:57:09.740Z,2.70
2022-11-15T00:59:55.425Z,5.63
2022-11-15T01:02:40.975Z,2.05
2022-11-15T01:05:26.920Z,3.35
2022-11-15T01:08:16.571Z,2.95
2022-11-15T01:11:05.007Z,3.30
2022-11-15T01:13:50.349Z,2.22
2022-11-15T01:16:35.803Z,5.40
2022-11-15T01:19:21.447Z,4.22
2022-11-15T01:22:06.998Z,4.22
2022-11-15T01:24:52.799Z,2.03
2022-11-15T01:27:49.563Z,4.70
2022-11-15T01:30:36.796Z,3.50
2022-11-15T01:33:22.341Z,3.85
2022-11-15T01:36:26.287Z,2.33
2022-11-15T01:39:12.270Z,2.85
2022-11-15T01:41:57.727Z,3.50
2022-11-15T01:44:48.558Z,2.45
2022-11-15T01:47:42.253Z,2.08
2022-11-15T01:50:32.139Z,3.50
2022-11-15T01:53:21.168Z,3.97
2022-11-15T01:56:10.692Z,1.80
2022-11-15T01:58:59.642Z,3.20
2022-11-15T02:01:45.411Z,4.30
2022-11-15T02:04:33.943Z,5.78
2022-11-15T02:07:22.347Z,4.75
2022-11-15T02:10:14.432Z,5.32
2022-11-15T02:13:02.056Z,5.10
2022-11-15T02:19:04.806Z,3.67
2022-11-15T02:22:09.947Z,5.57
2022-11-15T02:25:22.917Z,4.40
2022-11-15T02:28:14.696Z,4.32
2022-11-15T02:31:27.881Z,4.40
2022-11-15T02:34:32.455Z,3.50
2022-11-15T02:37:30.569Z,5.28
2022-11-15T02:40:30.726Z,3.45
2022-11-15T02:43:47.679Z,5.85
2022-11-15T02:47:14.227Z,3.72
2022-11-15T02:50:07.109Z,3.53
2022-11-15T02:52:53.149Z,3.08
2022-11-15T02:55:43.094Z,4.95
2022-11-15T02:58:48.606Z,5.63
2022-11-15T03:02:10.139Z,7.00
2022-11-15T03:05:13.879Z,4.65
2022-11-15T03:08:11.156Z,7.53
2022-11-15T03:10:59.530Z,5.63
2022-11-15T03:13:57.276Z,4.85
2022-11-15T03:16:57.968Z,3.35
2022-11-15T03:19:49.122Z,8.95
2022-11-15T03:22:42.115Z,3.63
2022-11-15T03:25:30.973Z,4.68
2022-11-15T03:28:27.394Z,4.55
2022-11-15T03:31:35.689Z,2.45
2022-11-15T03:34:53.186Z,1.55
2022-11-15T03:37:43.300Z,5.43
2022-11-15T03:40:37.104Z,4.05
2022-11-15T03:43:42.726Z,3.80
2022-11-15T03:46:34.535Z,2.42
2022-11-15T03:49:26.888Z,3.70
2022-11-15T03:52:12.988Z,4.00
2022-11-15T03:55:02.459Z,2.88
2022-11-15T03:57:51.203Z,3.90
2022-11-15T04:00:37.148Z,5.00
2022-11-15T04:03:22.921Z,4.55
2022-11-15T04:06:08.616Z,4.00
2022-11-15T04:08:54.639Z,4.55
2022-11-15T04:11:40.626Z,3.33
2022-11-15T04:14:26.227Z,2.85
2022-11-15T04:17:11.569Z,5.43
2022-11-15T04:20:15.606Z,5.00
2022-11-15T04:23:20.957Z,7.00
2022-11-15T04:26:11.270Z,4.75
2022-11-15T04:29:15.277Z,4.85
2022-11-15T04:32:07.401Z,3.88
2022-11-15T04:34:52.966Z,5.38
2022-11-15T04:37:38.944Z,8.25
2022-11-15T04:40:24.883Z,3.13
2022-11-15T04:43:10.742Z,4.65
2022-11-15T04:45:56.703Z,4.20
2022-11-15T04:48:42.323Z,3.70
2022-11-15T04:51:28.147Z,6.75
2022-11-15T04:54:13.687Z,6.07
2022-11-15T04:56:59.085Z,5.20
2022-11-15T04:59:45.096Z,4.72
2022-11-15T05:02:52.879Z,4.10
2022-11-15T05:05:38.730Z,4.43
2022-11-15T05:08:24.075Z,3.70
2022-11-15T05:11:09.713Z,5.15
2022-11-15T05:13:56.444Z,6.47
2022-11-15T05:16:43.061Z,6.30
2022-11-15T05:19:29.100Z,6.80
2022-11-15T05:22:14.593Z,5.93
2022-11-15T05:25:00.813Z,9.05
2022-11-15T05:27:46.307Z,4.43
2022-11-15T05:30:32.112Z,4.97
2022-11-15T05:33:18.569Z,4.28
2022-11-15T05:36:28.245Z,5.35
2022-11-15T05:39:14.149Z,9.05
2022-11-15T05:42:08.915Z,10.27
2022-11-15T05:44:55.131Z,5.38
2022-11-15T05:47:41.695Z,6.22
2022-11-15T05:50:28.171Z,6.90
2022-11-15T05:53:15.800Z,6.88
2022-11-15T05:56:01.853Z,6.97
2022-11-15T05:58:47.442Z,5.32
2022-11-15T06:01:33.063Z,5.05
2022-11-15T06:04:18.578Z,8.90
2022-11-15T06:07:04.175Z,5.57
2022-11-15T06:09:49.949Z,5.40
2022-11-15T06:12:35.682Z,4.03
2022-11-15T06:15:21.126Z,7.55
2022-11-15T06:18:06.806Z,7.43
2022-11-15T06:20:52.424Z,5.47
2022-11-15T06:23:38.005Z,6.07
2022-11-15T06:26:23.598Z,9.35
2022-11-15T06:29:09.404Z,4.93
2022-11-15T06:31:55.102Z,7.30
2022-11-15T06:34:40.791Z,5.40
2022-11-15T06:37:26.414Z,5.45
2022-11-15T06:40:12.552Z,4.60
2022-11-15T06:43:01.237Z,5.47
2022-11-15T06:45:46.920Z,6.72
2022-11-15T06:48:34.268Z,6.45
2022-11-15T06:51:19.380Z,8.27
2022-11-15T06:54:05.023Z,6.15
2022-11-15T06:56:50.510Z,5.60
2022-11-15T06:59:40.270Z,7.40
2022-11-15T07:02:26.635Z,7.18
2022-11-15T07:05:13.322Z,6.70
2022-11-15T07:07:59.761Z,5.85
2022-11-15T07:10:45.328Z,6.60
2022-11-15T07:13:36.417Z,6.25
2022-11-15T07:16:22.470Z,6.20
2022-11-15T07:19:10.137Z,5.43
2022-11-15T07:21:55.594Z,6.32
2022-11-15T07:24:40.925Z,5.65
2022-11-15T07:27:26.616Z,7.95
2022-11-15T07:30:15.573Z,9.50
2022-11-15T07:33:02.106Z,7.63
2022-11-15T07:35:51.462Z,5.93
2022-11-15T07:38:42.482Z,7.95
2022-11-15T07:41:28.753Z,6.50
2022-11-15T07:44:14.295Z,6.63
2022-11-15T07:47:00.024Z,8.48
2022-11-15T07:49:47.217Z,11.82
2022-11-15T07:52:32.555Z,6.90
2022-11-15T07:55:18.214Z,8.00
2022-11-15T07:58:07.862Z,6.47
2022-11-15T08:00:53.810Z,8.93
2022-11-15T08:03:39.644Z,11.60
2022-11-15T08:06:25.406Z,7.88
2022-11-15T08:09:11.204Z,6.53
2022-11-15T08:11:56.783Z,6.35
2022-11-15T08:14:42.255Z,6.97
2022-11-15T08:17:28.930Z,11.18
2022-11-15T08:20:14.718Z,6.53
2022-11-15T08:23:02.273Z,8.57
2022-11-15T08:25:48.149Z,6.05
2022-11-15T08:28:34.033Z,7.22
2022-11-15T08:31:20.074Z,9.15
2022-11-15T08:34:07.119Z,7.18
2022-11-15T08:36:52.752Z,8.20
2022-11-15T08:39:38.977Z,5.35
2022-11-15T08:42:24.691Z,7.70
2022-11-15T08:45:10.504Z,8.98
2022-11-15T08:47:56.831Z,6.72
2022-11-15T08:50:44.825Z,8.60
2022-11-15T08:53:30.569Z,8.07
2022-11-15T08:56:16.581Z,8.88
2022-11-15T08:59:02.938Z,7.70
2022-11-15T09:01:48.544Z,5.90
2022-11-15T09:04:34.189Z,7.32
2022-11-15T09:07:20.067Z,12.27
2022-11-15T09:10:05.679Z,8.00
2022-11-15T09:12:51.516Z,8.05
2022-11-15T09:15:36.977Z,7.03
2022-11-15T09:18:23.864Z,10.30
2022-11-15T09:21:11.087Z,9.38
2022-11-15T09:23:57.227Z,9.38
2022-11-15T09:26:43.000Z,9.00
2022-11-15T09:29:28.574Z,5.13
2022-11-15T09:32:14.401Z,7.47
2022-11-15T09:35:00.099Z,8.05
2022-11-15T09:37:45.525Z,9.02
2022-11-15T09:40:36.823Z,10.75
2022-11-15T09:43:37.552Z,8.20
2022-11-15T09:46:36.668Z,6.45
2022-11-15T09:49:39.939Z,14.60
2022-11-15T09:52:19.449Z,7.78
2022-11-15T09:54:54.000Z,9.00
2022-11-15T09:57:41.186Z,13.70
2022-11-15T10:00:45.315Z,9.32
2022-11-15T10:03:15.202Z,15.85
2022-11-15T10:05:48.316Z,14.43
2022-11-15T10:08:25.865Z,9.00
2022-11-15T10:11:35.688Z,9.80
2022-11-15T10:13:57.620Z,6.97
2022-11-15T10:16:52.777Z,10.30
2022-11-15T10:19:53.725Z,10.02
2022-11-15T10:22:31.762Z,8.13
2022-11-15T10:25:17.553Z,12.65
2022-11-15T10:27:48.643Z,12.32
2022-11-15T10:30:19.081Z,9.57
2022-11-15T10:32:48.501Z,7.40
2022-11-15T10:35:26.046Z,6.85
2022-11-15T10:37:56.649Z,7.57
2022-11-15T10:40:25.449Z,11.95
2022-11-15T10:43:27.383Z,9.07
2022-11-15T10:45:54.591Z,10.27
2022-11-15T10:48:23.929Z,11.00
2022-11-15T10:50:53.170Z,6.97
2022-11-15T10:53:45.140Z,10.38
2022-11-15T10:56:17.032Z,6.95
2022-11-15T10:58:51.413Z,7.72
2022-11-15T11:01:32.533Z,9.02
2022-11-15T11:04:09.614Z,7.20
2022-11-15T11:06:50.466Z,11.43
2022-11-15T11:09:33.926Z,9.75
2022-11-15T11:12:02.661Z,10.75
2022-11-15T11:14:35.048Z,10.65
2022-11-15T11:17:14.298Z,9.80
2022-11-15T11:19:41.499Z,12.52
2022-11-15T11:22:33.477Z,12.48
2022-11-15T11:25:21.677Z,8.88
2022-11-15T11:27:57.680Z,7.43
2022-11-15T11:31:06.584Z,12.88
2022-11-15T11:33:45.713Z,9.25
2022-11-15T11:36:38.277Z,11.88
2022-11-15T11:39:11.716Z,11.23
2022-11-15T11:42:03.554Z,13.30
2022-11-15T11:44:36.795Z,12.35
2022-11-15T11:47:22.145Z,9.52
2022-11-15T11:50:01.990Z,10.18
2022-11-15T11:52:41.549Z,8.50
2022-11-15T11:55:24.122Z,17.58
2022-11-15T11:58:03.166Z,11.82
2022-11-15T12:00:35.345Z,8.70
2022-11-15T12:03:08.789Z,9.80
2022-11-15T12:06:09.333Z,9.45
2022-11-15T12:09:03.401Z,11.85
2022-11-15T12:11:55.018Z,13.45
2022-11-15T12:14:49.388Z,8.27
2022-11-15T12:17:21.766Z,12.65
2022-11-15T12:19:49.616Z,7.80
2022-11-15T12:22:22.299Z,8.70
2022-11-15T12:25:02.705Z,6.53
2022-11-15T12:27:36.744Z,11.27
2022-11-15T12:30:19.338Z,15.68
2022-11-15T12:32:55.898Z,9.50
2022-11-15T12:35:28.130Z,7.72
2022-11-15T12:37:56.650Z,8.15
2022-11-15T12:40:26.422Z,7.82
2022-11-15T12:43:33.291Z,11.38
2022-11-15T12:46:05.758Z,8.27
2022-11-15T12:48:35.733Z,9.00
2022-11-15T12:51:03.609Z,10.80
2022-11-15T12:53:36.388Z,11.88
2022-11-15T12:56:18.663Z,12.68
2022-11-15T12:59:03.539Z,7.57
2022-11-15T13:01:36.372Z,7.25
2022-11-15T13:04:22.531Z,8.77
2022-11-15T13:07:04.297Z,7.30
2022-11-15T13:09:37.380Z,7.82
2022-11-15T13:12:27.841Z,11.38
2022-11-15T13:15:02.263Z,12.05
2022-11-15T13:17:35.095Z,10.75
2022-11-15T13:20:08.222Z,11.40
2022-11-15T13:22:52.911Z,10.45
2022-11-15T13:25:43.229Z,7.35
2022-11-15T13:28:16.349Z,9.88
2022-11-15T13:30:54.250Z,10.55
2022-11-15T13:33:36.763Z,10.63
2022-11-15T13:36:15.914Z,11.70
2022-11-15T13:38:44.509Z,12.07
2022-11-15T13:41:25.299Z,12.15
2022-11-15T13:43:53.851Z,15.20
2022-11-15T13:46:29.756Z,11.68
2022-11-15T13:49:05.819Z,11.27
2022-11-15T13:51:45.206Z,12.18
2022-11-15T13:54:36.823Z,13.02
2022-11-15T13:57:14.778Z,13.90
2022-11-15T13:59:55.165Z,9.30
2022-11-15T14:02:34.039Z,8.43
2022-11-15T14:05:03.089Z,12.25
2022-11-15T14:07:31.716Z,8.85
2022-11-15T14:09:58.968Z,17.20
2022-11-15T14:12:33.357Z,8.98
2022-11-15T14:15:02.903Z,14.98
2022-11-15T14:17:30.435Z,15.03
2022-11-15T14:19:59.136Z,16.25
2022-11-15T14:22:27.463Z,10.57
2022-11-15T14:25:22.648Z,13.38
2022-11-15T14:28:10.300Z,11.20
2022-11-15T14:30:37.368Z,14.15
2022-11-15T14:33:21.898Z,14.60
2022-11-15T14:35:49.364Z,12.33
2022-11-15T14:38:16.495Z,8.45
2022-11-15T14:40:44.858Z,14.93
2022-11-15T14:43:13.502Z,15.60
2022-11-15T14:45:41.135Z,13.88
2022-11-15T14:48:08.558Z,10.50
2022-11-15T14:50:36.686Z,8.13
2022-11-15T14:53:05.001Z,8.03
2022-11-15T14:55:36.983Z,9.65
2022-11-15T14:58:05.394Z,12.98
2022-11-15T15:00:35.364Z,12.40
2022-11-15T15:03:03.639Z,10.35
2022-11-15T15:05:35.190Z,9.18
2022-11-15T15:08:02.879Z,10.93
2022-11-15T15:10:42.463Z,7.55
2022-11-15T15:13:22.075Z,9.80
2022-11-15T15:15:50.764Z,11.77
2022-11-15T15:18:19.159Z,9.63
2022-11-15T15:20:55.465Z,10.53
2022-11-15T15:23:24.154Z,9.73
2022-11-15T15:25:51.225Z,12.00
2022-11-15T15:28:19.537Z,10.00
2022-11-15T15:30:46.679Z,10.43
2022-11-15T15:33:13.752Z,11.77
2022-11-15T15:35:40.904Z,9.33
2022-11-15T15:38:10.329Z,11.07
2022-11-15T15:40:37.509Z,10.27
2022-11-15T15:43:04.626Z,8.60
2022-11-15T15:45:33.359Z,13.00
2022-11-15T15:48:00.495Z,11.27
2022-11-15T15:50:30.109Z,10.20
2022-11-15T15:53:00.017Z,10.83
2022-11-15T15:55:28.110Z,12.93
2022-11-15T15:57:55.376Z,12.50
2022-11-15T16:00:25.900Z,10.63
2022-11-15T16:02:54.149Z,9.15
2022-11-15T16:05:22.196Z,12.33
2022-11-15T16:07:49.613Z,11.60
2022-11-15T16:10:22.636Z,12.75
2022-11-15T16:12:50.453Z,13.03
2022-11-15T16:15:18.320Z,12.23
2022-11-15T16:17:50.842Z,14.50
2022-11-15T16:20:32.954Z,12.47
2022-11-15T16:23:05.752Z,11.93
2022-11-15T16:25:49.665Z,13.55
2022-11-15T16:28:24.565Z,14.63
2022-11-15T16:31:11.711Z,12.82
2022-11-15T16:33:39.787Z,12.35
2022-11-15T16:36:23.411Z,9.07
2022-11-15T16:38:54.226Z,10.45
2022-11-15T16:41:21.419Z,8.45
2022-11-15T16:43:51.604Z,14.27
2022-11-15T16:46:21.533Z,11.70
2022-11-15T16:48:49.556Z,12.10
2022-11-15T16:51:17.512Z,13.50
2022-11-15T16:53:44.630Z,9.97
2022-11-15T16:56:30.677Z,10.07
2022-11-15T16:58:59.315Z,12.23
2022-11-15T17:01:32.731Z,13.23
2022-11-15T17:04:00.162Z,11.03
2022-11-15T17:06:27.197Z,13.00
2022-11-15T17:08:54.995Z,10.17
2022-11-15T17:11:22.873Z,11.15
2022-11-15T17:13:50.122Z,14.10
2022-11-15T17:16:18.513Z,15.43
2022-11-15T17:18:45.827Z,12.27
2022-11-15T17:21:18.584Z,13.00
2022-11-15T17:23:46.470Z,15.13
2022-11-15T17:26:34.980Z,16.17
2022-11-15T17:29:07.892Z,13.77
2022-11-15T17:31:36.649Z,11.87
2022-11-15T17:34:05.744Z,13.17
2022-11-15T17:36:33.994Z,14.37
2022-11-15T17:39:01.170Z,10.87
2022-11-15T17:41:29.458Z,13.67
2022-11-15T17:44:02.034Z,12.97
2022-11-15T17:46:29.867Z,12.60
2022-11-15T17:48:57.965Z,13.97
2022-11-15T17:51:25.389Z,13.73
2022-11-15T17:53:53.174Z,15.10
2022-11-15T17:56:23.159Z,12.30
2022-11-15T17:58:55.068Z,17.07
2022-11-15T18:01:33.562Z,15.35
2022-11-15T18:04:02.447Z,13.82
2022-11-15T18:06:34.537Z,15.90
2022-11-15T18:09:05.165Z,13.50
2022-11-15T18:11:33.837Z,13.00
2022-11-15T18:14:04.869Z,14.93
2022-11-15T18:16:34.891Z,15.10
2022-11-15T18:19:08.987Z,16.77
2022-11-15T18:21:55.909Z,13.17
2022-11-15T18:24:35.071Z,14.85
2022-11-15T18:27:04.512Z,13.60
2022-11-15T18:29:33.430Z,14.90
2022-11-15T18:32:00.664Z,17.07
2022-11-15T18:34:34.160Z,14.90
2022-11-15T18:37:03.016Z,16.97
2022-11-15T18:39:40.183Z,15.20
2022-11-15T18:44:48.291Z,16.48
2022-11-15T18:47:15.603Z,15.60
2022-11-15T18:49:42.697Z,17.07
2022-11-15T18:52:10.742Z,17.97
2022-11-15T18:54:37.860Z,14.37
2022-11-15T18:57:05.078Z,14.33
2022-11-15T18:59:32.476Z,14.60
2022-11-15T19:02:02.945Z,13.30
2022-11-15T19:04:29.978Z,12.97
2022-11-15T19:06:57.391Z,11.50
2022-11-15T19:09:33.023Z,10.10
2022-11-15T19:12:00.628Z,13.07
2022-11-15T19:14:28.719Z,11.93
2022-11-15T19:16:56.223Z,12.63
2022-11-15T19:19:28.102Z,11.17
2022-11-15T19:21:57.186Z,12.57
2022-11-15T19:24:24.974Z,11.40
2022-11-15T19:26:52.234Z,12.50
2022-11-15T19:29:19.541Z,12.13
2022-11-15T19:31:48.972Z,12.93
2022-11-15T19:34:18.167Z,11.63
2022-11-15T19:36:50.094Z,10.97
2022-11-15T19:39:20.057Z,14.77
2022-11-15T19:41:50.154Z,12.57
2022-11-15T19:44:19.032Z,13.53
2022-11-15T19:46:46.172Z,14.40
2022-11-15T19:49:13.607Z,12.60
2022-11-15T19:51:42.889Z,12.37
2022-11-15T19:54:10.777Z,13.10
2022-11-15T19:56:40.166Z,15.30
2022-11-15T19:59:11.792Z,14.70
2022-11-15T20:01:39.581Z,17.27
2022-11-15T20:04:07.980Z,14.83
2022-11-15T20:06:38.446Z,13.80
2022-11-15T20:09:05.358Z,13.70
2022-11-15T20:11:33.700Z,17.30
2022-11-15T20:14:05.121Z,14.50
2022-11-15T20:16:32.144Z,16.17
2022-11-15T20:18:59.674Z,19.33
2022-11-15T20:21:26.815Z,18.87
2022-11-15T20:23:53.911Z,18.57
2022-11-15T20:26:21.506Z,16.10
2022-11-15T20:28:52.020Z,20.00
2022-11-15T20:31:20.041Z,18.60
2022-11-15T20:33:47.443Z,18.93
2022-11-15T20:36:16.111Z,17.10
2022-11-15T20:38:44.954Z,19.77
2022-11-15T20:41:13.145Z,14.93
2022-11-15T20:43:43.635Z,17.80
2022-11-15T20:46:12.600Z,17.63
2022-11-15T20:48:40.427Z,19.45
2022-11-15T20:51:12.105Z,20.23
2022-11-15T20:53:39.216Z,22.33
2022-11-15T20:56:18.052Z,15.13
2022-11-15T20:58:46.007Z,15.60
2022-11-15T21:01:15.644Z,14.90
2022-11-15T21:03:43.572Z,14.20
2022-11-15T21:06:11.819Z,17.03
2022-11-15T21:08:57.614Z,18.90
2022-11-15T21:11:43.732Z,18.37
2022-11-15T21:14:11.283Z,15.90
2022-11-15T21:16:39.141Z,18.50
2022-11-15T21:19:07.055Z,17.67
2022-11-15T21:21:35.922Z,17.97
2022-11-15T21:24:08.625Z,17.57
2022-11-15T21:26:36.620Z,16.20
2022-11-15T21:29:04.862Z,17.27
2022-11-15T21:31:32.261Z,18.53
2022-11-15T21:34:02.610Z,17.23
2022-11-15T21:36:30.435Z,21.30
2022-11-15T21:38:57.689Z,16.80
2022-11-15T21:41:24.678Z,18.40
2022-11-15T21:43:51.762Z,18.60
2022-11-15T21:46:18.887Z,15.63
2022-11-15T21:48:45.945Z,18.80
2022-11-15T21:51:13.172Z,18.07
2022-11-15T21:53:41.318Z,18.80
2022-11-15T21:56:09.314Z,18.83
2022-11-15T21:58:36.627Z,18.90
2022-11-15T22:01:25.853Z,19.60
2022-11-15T22:03:53.124Z,17.33
2022-11-15T22:06:20.274Z,16.77
2022-11-15T22:08:47.282Z,19.33
2022-11-15T22:11:15.490Z,17.97
2022-11-15T22:13:43.228Z,17.67
2022-11-15T22:16:10.926Z,17.17
2022-11-15T22:18:38.774Z,13.43
2022-11-15T22:21:11.917Z,17.00
2022-11-15T22:23:39.798Z,14.30
2022-11-15T22:26:08.140Z,14.97
2022-11-15T22:28:35.539Z,15.87
2022-11-15T22:31:03.540Z,15.93
2022-11-15T22:33:32.401Z,16.13
2022-11-15T22:36:00.614Z,14.80
2022-11-15T22:38:29.883Z,14.97
2022-11-15T22:40:57.822Z,16.53
2022-11-15T22:43:26.668Z,16.67
2022-11-15T22:45:59.217Z,17.30
2022-11-15T22:48:29.856Z,14.67
2022-11-15T22:50:58.096Z,14.00
2022-11-15T22:53:25.921Z,14.73
2022-11-15T22:55:56.424Z,17.13
2022-11-15T22:58:25.619Z,14.67
2022-11-15T23:00:55.037Z,18.10
2022-11-15T23:03:23.654Z,14.00
2022-11-15T23:05:51.100Z,20.27
2022-11-15T23:08:18.930Z,15.67
2022-11-15T23:11:05.217Z,17.23
2022-11-15T23:13:33.921Z,16.90
2022-11-15T23:16:22.752Z,16.80
2022-11-15T23:18:54.926Z,17.67
2022-11-15T23:21:52.744Z,16.40
2022-11-15T23:24:20.581Z,15.18
2022-11-15T23:26:49.932Z,15.00
2022-11-15T23:29:19.146Z,13.43
2022-11-15T23:32:05.865Z,15.40
2022-11-15T23:34:36.057Z,15.47
2022-11-15T23:37:03.974Z,13.63
2022-11-15T23:39:31.340Z,16.70
2022-11-15T23:42:02.032Z,13.37
2022-11-15T23:44:31.846Z,18.30
2022-11-15T23:46:58.972Z,14.73
2022-11-15T23:49:35.289Z,16.40
2022-11-15T23:52:07.412Z,16.80
2022-11-15T23:54:36.074Z,15.07
2022-11-15T23:57:03.490Z,13.73
2022-11-15T23:59:30.566Z,15.67
